Thursday, April 19, 2018, 5:07 PM EDT
Back to Local

KMGW, Morgantown Muni-hart Field

Location: Morgantown, WV, United States Lat: 39.65
Local Time: 5:07 PM EDT (21:07 GMT) Lon: -79.917
Time Zone: US/Eastern Elev: 1246 ft

Show me the last for .
Show Decoded

2018-04-19 16:53 METAR KMGW 192053Z VRB06G16KT 10SM BKN030 BKN036 OVC044 04/M02 A3013 RMK AO2
                 SLP209 T00441017 51018 =
2018-04-19 16:25 METAR KMGW 192025Z 28008KT 10SM BKN029 OVC033 04/M02 A3012 RMK AO2 T00391017 =
2018-04-19 15:53 METAR KMGW 191953Z 30007KT 10SM OVC030 04/M02 A3012 RMK AO2 SLP205 T00391022 =
2018-04-19 14:53 METAR KMGW 191853Z 30007KT 10SM OVC031 04/M02 A3010 RMK AO2 SLP202 T00391022 =
2018-04-19 14:00 METAR KMGW 191800Z 31008G15KT 260V340 10SM SCT025 BKN031 OVC044 04/M02 A3008 RMK
                 AO2 T00441017 =
2018-04-19 13:53 METAR KMGW 191753Z 31010G15KT 10SM BKN025 BKN030 OVC044 03/M02 A3008 RMK AO2
                 RAE00SNB00E09 SLP192 P0000 60003 T00331022 10072 20022 53024 =
2018-04-19 12:53 METAR KMGW 191653Z 30007KT 7SM -RA FEW016 BKN024 OVC060 04/02 A3003 RMK AO2
                 RAB21E30B46SNB1555E10 SLP174 P0001 T00440022 =
2018-04-19 12:48 METAR KMGW 191648Z 30005G15KT 6SM -RA FEW018 BKN024 OVC042 03/01 A3003 RMK AO2
                 RAB21E30B46SNB1555E10 P0001 =
2018-04-19 12:07 METAR KMGW 191607Z 29007KT 260V330 3SM -SN BR FEW006 BKN037 OVC055 03/01 A3001
                 RMK AO2 SNB1555 P0001 T00330011 =
2018-04-19 12:02 METAR KMGW 191602Z 29007G16KT 2 1/2SM -SN BR FEW006 BKN027 OVC050 02/01 A3001
                 RMK AO2 SNB1555 P0001 T00220006 =
2018-04-19 11:55 METAR KMGW 191555Z 29009G14KT 5SM -SN BR FEW012 BKN034 OVC050 03/01 A3000 RMK
                 AO2 SNB55 P0000 T00330006 =
2018-04-19 11:53 METAR KMGW 191553Z 29009G14KT 260V350 10SM SCT015 BKN034 OVC050 03/01 A3000 RMK
                 AO2 RAB28E38UPB38E41SNE20 SLP165 P0000 T00330006 =
2018-04-19 11:38 METAR KMGW 191538Z VRB06G15KT 8SM UP FEW014 BKN031 OVC048 03/01 A2999 RMK AO2
                 RAB28E38UPB38SNE20 P0000 T00280006 =
2018-04-19 11:28 METAR KMGW 191528Z 30008KT 270V330 8SM -RA BKN014 BKN018 OVC046 03/01 A2999 RMK
                 AO2 RAB28SNE20 PRESRR P0000 T00330011 =
2018-04-19 10:53 METAR KMGW 191453Z VRB04KT 6SM -SN BR FEW015 BKN021 OVC033 03/01 A2996 RMK AO2
                 RAB02E13UPB13E25SNB34 SLP150 P0000 60002 T00280006 53057 =
2018-04-19 10:38 METAR KMGW 191438Z 31011G20KT 6SM -SN BR FEW014 BKN025 OVC033 03/00 A2995 RMK
                 AO2 RAB02E13UPB13E25SNB34 P0000 T00280000 =
2018-04-19 09:53 METAR KMGW 191353Z 30008G21KT 10SM SCT016 BKN023 OVC028 03/01 A2990 RMK AO2
                 RAB18E41 SLP128 P0001 T00330006 =
2018-04-19 08:53 METAR KMGW 191253Z 27011G19KT 10SM BKN022 BKN028 OVC037 06/02 A2984 RMK AO2
                 RAE12 SLP106 P0001 T00560022 =
2018-04-19 08:40 METAR KMGW 191240Z 29010G23KT 260V330 10SM BKN022 BKN035 OVC042 06/02 A2983 RMK
                 AO2 RAE12 P0001 T00610022 =
2018-04-19 08:16 METAR KMGW 191216Z 27013G21KT 10SM SCT024 BKN034 OVC043 07/03 A2981 RMK AO2
                 RAE12 P0001 T00670028 =
2018-04-19 07:53 METAR KMGW 191153Z 25010G21KT 210V290 9SM -RA SCT024 BKN029 OVC045 07/04 A2978
                 RMK AO2 RAB51 SLP087 P0000 60007 70046 T00720039 10078 20061 53018 =
2018-04-19 07:42 METAR KMGW 191142Z 24007G14KT 210V270 10SM FEW018 BKN034 OVC040 08/04 A2978 RMK
                 AO2 T00780039 =
2018-04-19 06:53 METAR KMGW 191053Z AUTO 24005KT 10SM FEW009 BKN016 OVC025 08/07 A2975 RMK AO2
                 SLP076 T00780067 =
2018-04-19 06:46 METAR KMGW 191046Z AUTO 23007G15KT 10SM SCT007 BKN014 OVC040 07/07 A2975 RMK AO2
                 T00720067 =
2018-04-19 05:53 METAR KMGW 190953Z AUTO 20004KT 6SM BR OVC005 07/07 A2973 RMK AO2 CIG 003V009
                 SLP068 T00670067 =
2018-04-19 05:49 METAR KMGW 190949Z AUTO 20004KT 6SM BR OVC005 07/07 A2973 RMK AO2 CIG 003V009 =
2018-04-19 04:53 METAR KMGW 190853Z AUTO 27004KT 7SM OVC003 07/06 A2972 RMK AO2 SLP064 60007
                 T00670061 55004 =
2018-04-19 04:42 METAR KMGW 190842Z AUTO VRB03KT 5SM BR BKN003 BKN014 OVC032 07/06 A2971 RMK AO2
                 T00670061 =
2018-04-19 04:18 METAR KMGW 190818Z AUTO 26003KT 7SM FEW005 BKN014 OVC050 07/06 A2972 RMK AO2
                 T00670061 =
2018-04-19 04:14 METAR KMGW 190814Z AUTO 24005KT 7SM FEW005 BKN036 OVC050 07/06 A2972 RMK AO2
                 T00670061 =
2018-04-19 04:04 METAR KMGW 190804Z AUTO 27004KT 7SM FEW003 BKN028 OVC037 07/06 A2972 RMK AO2
                 T00670061 =
2018-04-19 03:53 METAR KMGW 190753Z AUTO 24004KT 8SM FEW021 BKN040 OVC110 07/06 A2972 RMK AO2
                 RAE0657 SLP064 P0000 T00670061 =
2018-04-19 02:53 METAR KMGW 190653Z AUTO 12004KT 5SM -RA BR SCT008 BKN048 OVC070 06/06 A2972 RMK
                 AO2 SLP066 P0007 T00610061 =
2018-04-19 02:50 METAR KMGW 190650Z AUTO 14004KT 4SM -RA BR SCT006 BKN050 OVC070 06/06 A2973 RMK
                 AO2 P0007 =
2018-04-19 02:12 METAR KMGW 190612Z AUTO 00000KT 4SM RA BR BKN005 BKN011 OVC046 07/06 A2974 RMK
                 AO2 P0002 T00670061 =
2018-04-19 02:05 METAR KMGW 190605Z AUTO 00000KT 6SM -RA BR SCT005 BKN011 OVC050 07/06 A2974 RMK
                 AO2 P0000 T00670061 =
2018-04-19 01:53 METAR KMGW 190553Z AUTO 35003KT 4SM -RA BR FEW004 SCT011 OVC055 06/06 A2973 RMK
                 AO2 SLP070 P0026 60039 T00610056 10128 20061 50029 =
2018-04-19 00:53 METAR KMGW 190453Z AUTO 36009KT 4SM RA BR BKN036 OVC043 07/05 A2974 RMK AO2 LTG
                 DSNT E PRESRR SLP073 P0012 T00720050 401441039 =
2018-04-18 23:53 METAR KMGW 190353Z AUTO 34007KT 9SM -RA BKN065 OVC090 10/03 A2966 RMK AO2 RAB46
                 PRESRR SLP046 P0001 T01000033 =
2018-04-18 22:53 METAR KMGW 190253Z 32004KT 10SM BKN100 11/04 A2964 RMK AO2 SLP041 T01060039
                 58024 =
2018-04-18 21:53 METAR KMGW 190153Z 00000KT 10SM SCT075 BKN085 OVC110 12/03 A2970 RMK AO2 SLP060
                 T01170028 =
2018-04-18 20:53 METAR KMGW 190053Z 00000KT 10SM OVC100 13/03 A2972 RMK AO2 SLP066 T01280028 =
2018-04-18 19:53 METAR KMGW 182353Z 01003KT 10SM OVC075 13/02 A2972 RMK AO2 SLP068 T01280022
                 10144 20106 55010 =
2018-04-18 18:53 METAR KMGW 182253Z 00000KT 10SM OVC060 13/02 A2972 RMK AO2 SLP068 T01330022 =
2018-04-18 17:53 METAR KMGW 182153Z 00000KT 10SM OVC070 14/02 A2974 RMK AO2 SLP076 T01390017 =

Support USWX by starting your Amazon purchase here.